CONNECT WITH FLYNQY PILOT TRAINING

Newquay Five Day Forecast

This Weather Widget is provided by the Met Office

EGHQ TAF and METAR

METAR

TAF

TAF AMD EGHQ 272029Z 2720/2722 19014KT 9999 BKN020 BECMG 2720/2722 BKN012 TEMPO 2720/2722 17016G26KT 7000 -RADZ BKN008 PROB30 TEMPO 2720/2722 3000 RADZ BKN004